sensor_id;sensor_type;location;lat;lon;timestamp;P1;durP1;ratioP1;P2;durP2;ratioP2
20880;SDS011;10600;53.096;8.802;2022-11-23T00:00:20;13.85;;;7.45;;
20880;SDS011;10600;53.096;8.802;2022-11-23T00:01:22;13.30;;;8.10;;
20880;SDS011;10600;53.096;8.802;2022-11-23T00:02:25;14.93;;;8.40;;
20880;SDS011;10600;53.096;8.802;2022-11-23T00:03:25;15.05;;;8.40;;
20880;SDS011;10600;53.096;8.802;2022-11-23T00:04:26;14.82;;;8.23;;
20880;SDS011;10600;53.096;8.802;2022-11-23T00:05:27;13.95;;;7.85;;
20880;SDS011;10600;53.096;8.802;2022-11-23T00:06:29;16.98;;;8.50;;
20880;SDS011;10600;53.096;8.802;2022-11-23T00:07:30;16.90;;;8.77;;
20880;SDS011;10600;53.096;8.802;2022-11-23T00:08:30;13.45;;;8.18;;
20880;SDS011;10600;53.096;8.802;2022-11-23T00:09:31;15.60;;;7.60;;
20880;SDS011;10600;53.096;8.802;2022-11-23T00:10:31;15.70;;;8.25;;
20880;SDS011;10600;53.096;8.802;2022-11-23T00:11:32;20.13;;;8.50;;
20880;SDS011;10600;53.096;8.802;2022-11-23T00:12:34;15.38;;;8.57;;
20880;SDS011;10600;53.096;8.802;2022-11-23T00:13:35;15.52;;;8.00;;
20880;SDS011;10600;53.096;8.802;2022-11-23T00:14:38;17.35;;;8.57;;
20880;SDS011;10600;53.096;8.802;2022-11-23T00:15:39;13.40;;;8.27;;
20880;SDS011;10600;53.096;8.802;2022-11-23T00:16:40;19.70;;;9.02;;
20880;SDS011;10600;53.096;8.802;2022-11-23T00:17:41;13.57;;;8.23;;
20880;SDS011;10600;53.096;8.802;2022-11-23T00:18:42;19.20;;;9.93;;
20880;SDS011;10600;53.096;8.802;2022-11-23T00:19:43;12.90;;;8.48;;
20880;SDS011;10600;53.096;8.802;2022-11-23T00:20:44;13.57;;;9.00;;
20880;SDS011;10600;53.096;8.802;2022-11-23T00:21:44;16.85;;;8.80;;
20880;SDS011;10600;53.096;8.802;2022-11-23T00:22:45;13.63;;;8.15;;
20880;SDS011;10600;53.096;8.802;2022-11-23T00:23:46;15.00;;;8.98;;
20880;SDS011;10600;53.096;8.802;2022-11-23T00:24:46;14.35;;;8.32;;
20880;SDS011;10600;53.096;8.802;2022-11-23T00:25:47;16.98;;;8.68;;
20880;SDS011;10600;53.096;8.802;2022-11-23T00:26:47;17.00;;;9.02;;
20880;SDS011;10600;53.096;8.802;2022-11-23T00:27:48;12.77;;;7.82;;
20880;SDS011;10600;53.096;8.802;2022-11-23T00:28:49;17.17;;;8.70;;
20880;SDS011;10600;53.096;8.802;2022-11-23T00:29:49;18.33;;;8.73;;
20880;SDS011;10600;53.096;8.802;2022-11-23T00:30:50;20.83;;;8.80;;
20880;SDS011;10600;53.096;8.802;2022-11-23T00:31:51;14.98;;;9.20;;
20880;SDS011;10600;53.096;8.802;2022-11-23T00:32:52;16.58;;;9.35;;
20880;SDS011;10600;53.096;8.802;2022-11-23T00:33:54;13.27;;;7.50;;
20880;SDS011;10600;53.096;8.802;2022-11-23T00:34:55;16.88;;;8.68;;
20880;SDS011;10600;53.096;8.802;2022-11-23T00:36:05;14.75;;;8.48;;
20880;SDS011;10600;53.096;8.802;2022-11-23T00:37:07;13.23;;;7.70;;
20880;SDS011;10600;53.096;8.802;2022-11-23T00:38:08;17.48;;;7.72;;
20880;SDS011;10600;53.096;8.802;2022-11-23T00:39:09;13.52;;;8.15;;
20880;SDS011;10600;53.096;8.802;2022-11-23T00:40:10;16.80;;;7.72;;
20880;SDS011;10600;53.096;8.802;2022-11-23T00:41:12;14.63;;;8.15;;
20880;SDS011;10600;53.096;8.802;2022-11-23T00:42:20;13.93;;;8.68;;
20880;SDS011;10600;53.096;8.802;2022-11-23T00:43:21;13.77;;;8.40;;
20880;SDS011;10600;53.096;8.802;2022-11-23T00:44:21;14.20;;;8.57;;
20880;SDS011;10600;53.096;8.802;2022-11-23T00:45:22;14.15;;;8.27;;
20880;SDS011;10600;53.096;8.802;2022-11-23T00:46:24;13.20;;;8.10;;
20880;SDS011;10600;53.096;8.802;2022-11-23T00:47:26;14.13;;;7.82;;
20880;SDS011;10600;53.096;8.802;2022-11-23T00:48:26;16.20;;;8.98;;
20880;SDS011;10600;53.096;8.802;2022-11-23T00:49:27;12.02;;;7.80;;
20880;SDS011;10600;53.096;8.802;2022-11-23T00:50:28;15.63;;;8.20;;
20880;SDS011;10600;53.096;8.802;2022-11-23T00:51:29;12.82;;;7.25;;
20880;SDS011;10600;53.096;8.802;2022-11-23T00:52:31;14.90;;;8.38;;
20880;SDS011;10600;53.096;8.802;2022-11-23T00:53:32;16.00;;;7.15;;
20880;SDS011;10600;53.096;8.802;2022-11-23T00:54:33;11.43;;;7.18;;
20880;SDS011;10600;53.096;8.802;2022-11-23T00:55:34;15.88;;;7.30;;
20880;SDS011;10600;53.096;8.802;2022-11-23T00:56:34;13.07;;;7.65;;
20880;SDS011;10600;53.096;8.802;2022-11-23T00:57:35;14.98;;;7.72;;
20880;SDS011;10600;53.096;8.802;2022-11-23T00:58:36;16.45;;;7.80;;
20880;SDS011;10600;53.096;8.802;2022-11-23T00:59:40;15.68;;;7.45;;
20880;SDS011;10600;53.096;8.802;2022-11-23T01:00:41;15.60;;;8.23;;
20880;SDS011;10600;53.096;8.802;2022-11-23T01:01:41;16.83;;;8.38;;
20880;SDS011;10600;53.096;8.802;2022-11-23T01:02:42;13.20;;;7.82;;
20880;SDS011;10600;53.096;8.802;2022-11-23T01:03:44;20.27;;;8.45;;
20880;SDS011;10600;53.096;8.802;2022-11-23T01:04:49;9.25;;;7.05;;
20880;SDS011;10600;53.096;8.802;2022-11-23T01:05:49;13.98;;;7.60;;
20880;SDS011;10600;53.096;8.802;2022-11-23T01:06:53;16.10;;;7.68;;
20880;SDS011;10600;53.096;8.802;2022-11-23T01:07:56;13.13;;;7.63;;
20880;SDS011;10600;53.096;8.802;2022-11-23T01:08:58;13.23;;;7.70;;
20880;SDS011;10600;53.096;8.802;2022-11-23T01:10:01;13.93;;;7.25;;
20880;SDS011;10600;53.096;8.802;2022-11-23T01:11:02;13.32;;;8.13;;
20880;SDS011;10600;53.096;8.802;2022-11-23T01:12:10;17.88;;;7.82;;
20880;SDS011;10600;53.096;8.802;2022-11-23T01:13:10;16.60;;;6.95;;
20880;SDS011;10600;53.096;8.802;2022-11-23T01:14:11;10.77;;;7.10;;
20880;SDS011;10600;53.096;8.802;2022-11-23T01:15:12;10.80;;;7.05;;
20880;SDS011;10600;53.096;8.802;2022-11-23T01:16:14;11.43;;;6.85;;
20880;SDS011;10600;53.096;8.802;2022-11-23T01:17:16;15.65;;;6.82;;
20880;SDS011;10600;53.096;8.802;2022-11-23T01:18:17;11.98;;;6.50;;
20880;SDS011;10600;53.096;8.802;2022-11-23T01:19:18;17.42;;;7.60;;
20880;SDS011;10600;53.096;8.802;2022-11-23T01:20:20;17.88;;;7.18;;
20880;SDS011;10600;53.096;8.802;2022-11-23T01:21:20;17.60;;;7.63;;
20880;SDS011;10600;53.096;8.802;2022-11-23T01:22:22;10.00;;;7.20;;
20880;SDS011;10600;53.096;8.802;2022-11-23T01:23:22;13.80;;;7.18;;
20880;SDS011;10600;53.096;8.802;2022-11-23T01:24:23;14.65;;;7.10;;
20880;SDS011;10600;53.096;8.802;2022-11-23T01:25:24;13.00;;;6.80;;
20880;SDS011;10600;53.096;8.802;2022-11-23T01:26:24;10.70;;;6.63;;
20880;SDS011;10600;53.096;8.802;2022-11-23T01:27:25;12.90;;;6.95;;
20880;SDS011;10600;53.096;8.802;2022-11-23T01:28:26;14.27;;;7.38;;
20880;SDS011;10600;53.096;8.802;2022-11-23T01:29:27;14.05;;;7.15;;
20880;SDS011;10600;53.096;8.802;2022-11-23T01:30:27;14.32;;;7.13;;
20880;SDS011;10600;53.096;8.802;2022-11-23T01:31:28;13.88;;;6.55;;
20880;SDS011;10600;53.096;8.802;2022-11-23T01:32:29;13.80;;;7.22;;
20880;SDS011;10600;53.096;8.802;2022-11-23T01:33:29;12.95;;;7.05;;
20880;SDS011;10600;53.096;8.802;2022-11-23T01:34:30;10.48;;;7.00;;
20880;SDS011;10600;53.096;8.802;2022-11-23T01:35:31;14.45;;;6.53;;
20880;SDS011;10600;53.096;8.802;2022-11-23T01:36:32;12.93;;;6.90;;
20880;SDS011;10600;53.096;8.802;2022-11-23T01:37:33;12.18;;;6.85;;
20880;SDS011;10600;53.096;8.802;2022-11-23T01:38:34;14.10;;;7.30;;
20880;SDS011;10600;53.096;8.802;2022-11-23T01:39:35;10.10;;;6.85;;
20880;SDS011;10600;53.096;8.802;2022-11-23T01:40:41;12.60;;;6.30;;
20880;SDS011;10600;53.096;8.802;2022-11-23T01:41:43;12.50;;;6.88;;
20880;SDS011;10600;53.096;8.802;2022-11-23T01:43:58;15.27;;;7.25;;
20880;SDS011;10600;53.096;8.802;2022-11-23T01:46:41;10.07;;;6.18;;
20880;SDS011;10600;53.096;8.802;2022-11-23T01:47:42;10.25;;;6.57;;
20880;SDS011;10600;53.096;8.802;2022-11-23T01:49:48;12.30;;;6.82;;
20880;SDS011;10600;53.096;8.802;2022-11-23T01:50:51;11.13;;;5.70;;
20880;SDS011;10600;53.096;8.802;2022-11-23T01:51:53;14.35;;;6.43;;
20880;SDS011;10600;53.096;8.802;2022-11-23T01:52:58;13.93;;;6.68;;
20880;SDS011;10600;53.096;8.802;2022-11-23T01:54:00;11.93;;;6.68;;
20880;SDS011;10600;53.096;8.802;2022-11-23T01:55:16;8.60;;;6.10;;
20880;SDS011;10600;53.096;8.802;2022-11-23T01:56:19;9.55;;;6.55;;
20880;SDS011;10600;53.096;8.802;2022-11-23T01:57:25;12.07;;;6.70;;
20880;SDS011;10600;53.096;8.802;2022-11-23T01:58:32;11.10;;;6.32;;
20880;SDS011;10600;53.096;8.802;2022-11-23T01:59:36;15.63;;;6.20;;
20880;SDS011;10600;53.096;8.802;2022-11-23T02:00:37;23.83;;;13.45;;
20880;SDS011;10600;53.096;8.802;2022-11-23T02:01:37;17.58;;;10.45;;
20880;SDS011;10600;53.096;8.802;2022-11-23T02:02:39;13.00;;;7.68;;
20880;SDS011;10600;53.096;8.802;2022-11-23T02:03:49;14.55;;;7.72;;
20880;SDS011;10600;53.096;8.802;2022-11-23T02:04:52;9.77;;;6.10;;
20880;SDS011;10600;53.096;8.802;2022-11-23T02:05:56;19.35;;;6.72;;
20880;SDS011;10600;53.096;8.802;2022-11-23T02:07:01;13.27;;;6.43;;
20880;SDS011;10600;53.096;8.802;2022-11-23T02:08:03;13.35;;;6.32;;
20880;SDS011;10600;53.096;8.802;2022-11-23T02:09:05;9.55;;;6.57;;
20880;SDS011;10600;53.096;8.802;2022-11-23T02:10:07;11.85;;;6.15;;
20880;SDS011;10600;53.096;8.802;2022-11-23T02:11:08;13.07;;;6.78;;
20880;SDS011;10600;53.096;8.802;2022-11-23T02:12:11;10.90;;;6.05;;
20880;SDS011;10600;53.096;8.802;2022-11-23T02:13:13;14.35;;;6.28;;
20880;SDS011;10600;53.096;8.802;2022-11-23T02:14:14;10.73;;;5.97;;
20880;SDS011;10600;53.096;8.802;2022-11-23T02:15:15;9.73;;;5.90;;
20880;SDS011;10600;53.096;8.802;2022-11-23T02:16:16;11.48;;;5.47;;
20880;SDS011;10600;53.096;8.802;2022-11-23T02:17:18;8.90;;;5.40;;
20880;SDS011;10600;53.096;8.802;2022-11-23T02:18:20;11.25;;;6.10;;
20880;SDS011;10600;53.096;8.802;2022-11-23T02:20:35;7.70;;;5.68;;
20880;SDS011;10600;53.096;8.802;2022-11-23T02:21:36;9.35;;;5.35;;
20880;SDS011;10600;53.096;8.802;2022-11-23T02:22:41;9.50;;;6.07;;
20880;SDS011;10600;53.096;8.802;2022-11-23T02:24:06;9.30;;;5.18;;
20880;SDS011;10600;53.096;8.802;2022-11-23T02:25:56;8.60;;;6.18;;
20880;SDS011;10600;53.096;8.802;2022-11-23T02:26:44;11.80;;;5.80;;
20880;SDS011;10600;53.096;8.802;2022-11-23T02:27:45;13.13;;;5.60;;
20880;SDS011;10600;53.096;8.802;2022-11-23T02:30:02;10.65;;;5.22;;
20880;SDS011;10600;53.096;8.802;2022-11-23T02:31:03;11.05;;;5.65;;
20880;SDS011;10600;53.096;8.802;2022-11-23T02:32:04;9.82;;;5.85;;
20880;SDS011;10600;53.096;8.802;2022-11-23T02:33:05;13.15;;;6.30;;
20880;SDS011;10600;53.096;8.802;2022-11-23T02:34:06;12.57;;;5.57;;
20880;SDS011;10600;53.096;8.802;2022-11-23T02:35:08;9.68;;;5.60;;
20880;SDS011;10600;53.096;8.802;2022-11-23T02:37:11;8.88;;;5.63;;
20880;SDS011;10600;53.096;8.802;2022-11-23T02:37:48;13.02;;;6.13;;
20880;SDS011;10600;53.096;8.802;2022-11-23T02:38:50;10.57;;;5.22;;
20880;SDS011;10600;53.096;8.802;2022-11-23T02:39:51;10.90;;;5.78;;
20880;SDS011;10600;53.096;8.802;2022-11-23T02:40:53;9.07;;;5.97;;
20880;SDS011;10600;53.096;8.802;2022-11-23T02:41:54;12.77;;;5.57;;
20880;SDS011;10600;53.096;8.802;2022-11-23T02:42:58;9.75;;;6.38;;
20880;SDS011;10600;53.096;8.802;2022-11-23T02:43:59;8.43;;;5.38;;
20880;SDS011;10600;53.096;8.802;2022-11-23T02:46:38;9.05;;;6.00;;
20880;SDS011;10600;53.096;8.802;2022-11-23T02:47:38;13.05;;;5.50;;
20880;SDS011;10600;53.096;8.802;2022-11-23T02:48:39;10.85;;;6.18;;
20880;SDS011;10600;53.096;8.802;2022-11-23T02:49:40;11.77;;;6.20;;
20880;SDS011;10600;53.096;8.802;2022-11-23T02:50:41;9.40;;;5.68;;
20880;SDS011;10600;53.096;8.802;2022-11-23T02:51:42;8.90;;;5.43;;
20880;SDS011;10600;53.096;8.802;2022-11-23T02:52:42;9.52;;;6.00;;
20880;SDS011;10600;53.096;8.802;2022-11-23T02:53:43;9.77;;;6.47;;
20880;SDS011;10600;53.096;8.802;2022-11-23T02:54:43;9.05;;;5.93;;
20880;SDS011;10600;53.096;8.802;2022-11-23T02:55:44;10.57;;;5.35;;
20880;SDS011;10600;53.096;8.802;2022-11-23T02:56:45;10.02;;;5.68;;
20880;SDS011;10600;53.096;8.802;2022-11-23T02:57:45;9.02;;;5.60;;
20880;SDS011;10600;53.096;8.802;2022-11-23T02:58:46;7.80;;;5.55;;
20880;SDS011;10600;53.096;8.802;2022-11-23T02:59:47;6.95;;;5.20;;
20880;SDS011;10600;53.096;8.802;2022-11-23T03:00:48;9.00;;;5.22;;
20880;SDS011;10600;53.096;8.802;2022-11-23T03:01:48;9.68;;;5.43;;
20880;SDS011;10600;53.096;8.802;2022-11-23T03:02:49;13.25;;;6.43;;
20880;SDS011;10600;53.096;8.802;2022-11-23T03:03:51;9.85;;;4.82;;
20880;SDS011;10600;53.096;8.802;2022-11-23T03:04:51;10.32;;;5.85;;
20880;SDS011;10600;53.096;8.802;2022-11-23T03:05:52;11.35;;;5.90;;
20880;SDS011;10600;53.096;8.802;2022-11-23T03:06:52;11.85;;;5.53;;
20880;SDS011;10600;53.096;8.802;2022-11-23T03:07:53;9.82;;;5.60;;
20880;SDS011;10600;53.096;8.802;2022-11-23T03:08:54;10.30;;;5.47;;
20880;SDS011;10600;53.096;8.802;2022-11-23T03:09:55;9.23;;;6.35;;
20880;SDS011;10600;53.096;8.802;2022-11-23T03:10:56;10.93;;;5.88;;
20880;SDS011;10600;53.096;8.802;2022-11-23T03:11:56;10.20;;;5.85;;
20880;SDS011;10600;53.096;8.802;2022-11-23T03:12:57;9.38;;;5.45;;
20880;SDS011;10600;53.096;8.802;2022-11-23T03:13:58;8.23;;;5.80;;
20880;SDS011;10600;53.096;8.802;2022-11-23T03:14:59;10.07;;;6.00;;
20880;SDS011;10600;53.096;8.802;2022-11-23T03:15:59;12.02;;;5.88;;
20880;SDS011;10600;53.096;8.802;2022-11-23T03:17:00;12.43;;;5.85;;
20880;SDS011;10600;53.096;8.802;2022-11-23T03:18:01;8.00;;;5.72;;
20880;SDS011;10600;53.096;8.802;2022-11-23T03:19:01;12.52;;;6.22;;
20880;SDS011;10600;53.096;8.802;2022-11-23T03:20:02;9.43;;;5.68;;
20880;SDS011;10600;53.096;8.802;2022-11-23T03:21:04;11.43;;;6.28;;
20880;SDS011;10600;53.096;8.802;2022-11-23T03:22:07;9.10;;;5.82;;
20880;SDS011;10600;53.096;8.802;2022-11-23T03:23:08;9.40;;;5.30;;
20880;SDS011;10600;53.096;8.802;2022-11-23T03:24:09;11.18;;;6.00;;
20880;SDS011;10600;53.096;8.802;2022-11-23T03:25:09;9.98;;;5.70;;
20880;SDS011;10600;53.096;8.802;2022-11-23T03:26:10;8.35;;;6.32;;
20880;SDS011;10600;53.096;8.802;2022-11-23T03:27:11;8.20;;;5.70;;
20880;SDS011;10600;53.096;8.802;2022-11-23T03:28:11;12.35;;;5.47;;
20880;SDS011;10600;53.096;8.802;2022-11-23T03:29:12;17.30;;;6.63;;
20880;SDS011;10600;53.096;8.802;2022-11-23T03:30:13;8.30;;;5.85;;
20880;SDS011;10600;53.096;8.802;2022-11-23T03:31:14;11.80;;;5.82;;
20880;SDS011;10600;53.096;8.802;2022-11-23T03:32:14;8.93;;;6.10;;
20880;SDS011;10600;53.096;8.802;2022-11-23T03:33:15;10.55;;;5.82;;
20880;SDS011;10600;53.096;8.802;2022-11-23T03:34:16;11.43;;;7.05;;
20880;SDS011;10600;53.096;8.802;2022-11-23T03:35:17;13.57;;;7.65;;
20880;SDS011;10600;53.096;8.802;2022-11-23T03:36:17;9.52;;;6.10;;
20880;SDS011;10600;53.096;8.802;2022-11-23T03:37:18;12.35;;;6.53;;
20880;SDS011;10600;53.096;8.802;2022-11-23T03:38:19;10.20;;;6.35;;
20880;SDS011;10600;53.096;8.802;2022-11-23T03:39:20;10.75;;;6.57;;
20880;SDS011;10600;53.096;8.802;2022-11-23T03:40:20;10.68;;;6.13;;
20880;SDS011;10600;53.096;8.802;2022-11-23T03:41:21;10.32;;;6.57;;
20880;SDS011;10600;53.096;8.802;2022-11-23T03:42:21;12.23;;;6.35;;
20880;SDS011;10600;53.096;8.802;2022-11-23T03:43:22;8.93;;;6.30;;
20880;SDS011;10600;53.096;8.802;2022-11-23T03:44:23;10.80;;;6.55;;
20880;SDS011;10600;53.096;8.802;2022-11-23T03:45:23;12.15;;;6.35;;
20880;SDS011;10600;53.096;8.802;2022-11-23T03:46:24;12.02;;;6.53;;
20880;SDS011;10600;53.096;8.802;2022-11-23T03:47:25;10.88;;;6.72;;
20880;SDS011;10600;53.096;8.802;2022-11-23T03:48:25;10.98;;;6.50;;
20880;SDS011;10600;53.096;8.802;2022-11-23T03:49:26;10.95;;;6.32;;
20880;SDS011;10600;53.096;8.802;2022-11-23T03:50:27;11.70;;;7.72;;
20880;SDS011;10600;53.096;8.802;2022-11-23T03:51:28;14.20;;;6.80;;
20880;SDS011;10600;53.096;8.802;2022-11-23T03:52:29;11.85;;;6.43;;
20880;SDS011;10600;53.096;8.802;2022-11-23T03:53:29;12.60;;;6.45;;
20880;SDS011;10600;53.096;8.802;2022-11-23T03:54:30;12.02;;;6.80;;
20880;SDS011;10600;53.096;8.802;2022-11-23T03:55:31;10.77;;;6.80;;
20880;SDS011;10600;53.096;8.802;2022-11-23T03:56:32;11.55;;;6.78;;
20880;SDS011;10600;53.096;8.802;2022-11-23T03:57:33;13.48;;;6.22;;
20880;SDS011;10600;53.096;8.802;2022-11-23T03:58:34;10.30;;;6.82;;
20880;SDS011;10600;53.096;8.802;2022-11-23T03:59:34;12.48;;;7.45;;
20880;SDS011;10600;53.096;8.802;2022-11-23T04:00:35;14.80;;;7.50;;
20880;SDS011;10600;53.096;8.802;2022-11-23T04:01:35;14.57;;;7.30;;
20880;SDS011;10600;53.096;8.802;2022-11-23T04:02:36;11.73;;;6.38;;
20880;SDS011;10600;53.096;8.802;2022-11-23T04:03:37;10.20;;;6.50;;
20880;SDS011;10600;53.096;8.802;2022-11-23T04:04:37;13.10;;;6.47;;
20880;SDS011;10600;53.096;8.802;2022-11-23T04:05:38;9.23;;;6.05;;
20880;SDS011;10600;53.096;8.802;2022-11-23T04:06:38;9.43;;;6.22;;
20880;SDS011;10600;53.096;8.802;2022-11-23T04:07:39;11.95;;;6.10;;
20880;SDS011;10600;53.096;8.802;2022-11-23T04:08:40;14.25;;;6.22;;
20880;SDS011;10600;53.096;8.802;2022-11-23T04:09:40;10.95;;;5.90;;
20880;SDS011;10600;53.096;8.802;2022-11-23T04:10:41;8.15;;;6.18;;
20880;SDS011;10600;53.096;8.802;2022-11-23T04:11:42;10.80;;;6.10;;
20880;SDS011;10600;53.096;8.802;2022-11-23T04:12:42;9.50;;;5.60;;
20880;SDS011;10600;53.096;8.802;2022-11-23T04:13:43;10.40;;;5.57;;
20880;SDS011;10600;53.096;8.802;2022-11-23T04:14:44;13.52;;;6.50;;
20880;SDS011;10600;53.096;8.802;2022-11-23T04:15:45;8.95;;;5.88;;
20880;SDS011;10600;53.096;8.802;2022-11-23T04:16:45;9.70;;;6.00;;
20880;SDS011;10600;53.096;8.802;2022-11-23T04:17:46;13.93;;;5.78;;
20880;SDS011;10600;53.096;8.802;2022-11-23T04:18:46;13.63;;;6.65;;
20880;SDS011;10600;53.096;8.802;2022-11-23T04:19:47;8.38;;;5.03;;
20880;SDS011;10600;53.096;8.802;2022-11-23T04:20:48;12.65;;;6.07;;
20880;SDS011;10600;53.096;8.802;2022-11-23T04:21:48;10.38;;;6.03;;
20880;SDS011;10600;53.096;8.802;2022-11-23T04:22:49;11.82;;;6.15;;
20880;SDS011;10600;53.096;8.802;2022-11-23T04:23:50;12.43;;;6.00;;
20880;SDS011;10600;53.096;8.802;2022-11-23T04:24:50;10.00;;;5.75;;
20880;SDS011;10600;53.096;8.802;2022-11-23T04:25:51;9.43;;;5.60;;
20880;SDS011;10600;53.096;8.802;2022-11-23T04:26:51;10.23;;;5.80;;
20880;SDS011;10600;53.096;8.802;2022-11-23T04:27:52;10.00;;;5.85;;
20880;SDS011;10600;53.096;8.802;2022-11-23T04:28:53;8.93;;;5.45;;
20880;SDS011;10600;53.096;8.802;2022-11-23T04:29:53;7.57;;;5.28;;
20880;SDS011;10600;53.096;8.802;2022-11-23T04:30:54;8.55;;;5.28;;
20880;SDS011;10600;53.096;8.802;2022-11-23T04:31:57;9.38;;;5.30;;
20880;SDS011;10600;53.096;8.802;2022-11-23T04:32:58;9.77;;;4.85;;
20880;SDS011;10600;53.096;8.802;2022-11-23T04:33:59;5.95;;;4.65;;
20880;SDS011;10600;53.096;8.802;2022-11-23T04:34:59;7.70;;;4.85;;
20880;SDS011;10600;53.096;8.802;2022-11-23T04:36:00;12.23;;;5.72;;
20880;SDS011;10600;53.096;8.802;2022-11-23T04:37:01;11.52;;;5.43;;
20880;SDS011;10600;53.096;8.802;2022-11-23T04:38:01;9.38;;;5.25;;
20880;SDS011;10600;53.096;8.802;2022-11-23T04:39:02;8.07;;;4.88;;
20880;SDS011;10600;53.096;8.802;2022-11-23T04:40:03;11.45;;;4.78;;
20880;SDS011;10600;53.096;8.802;2022-11-23T04:41:04;9.15;;;4.88;;
20880;SDS011;10600;53.096;8.802;2022-11-23T04:42:05;5.78;;;4.65;;
20880;SDS011;10600;53.096;8.802;2022-11-23T04:43:06;11.70;;;4.88;;
20880;SDS011;10600;53.096;8.802;2022-11-23T04:44:08;10.73;;;5.43;;
20880;SDS011;10600;53.096;8.802;2022-11-23T04:45:09;9.45;;;5.00;;
20880;SDS011;10600;53.096;8.802;2022-11-23T04:46:10;7.43;;;4.70;;
20880;SDS011;10600;53.096;8.802;2022-11-23T04:47:11;9.05;;;4.60;;
20880;SDS011;10600;53.096;8.802;2022-11-23T04:48:12;8.00;;;4.90;;
20880;SDS011;10600;53.096;8.802;2022-11-23T04:49:12;9.57;;;4.90;;
20880;SDS011;10600;53.096;8.802;2022-11-23T04:50:13;7.50;;;4.57;;
20880;SDS011;10600;53.096;8.802;2022-11-23T04:51:14;8.02;;;4.50;;
20880;SDS011;10600;53.096;8.802;2022-11-23T04:52:16;10.18;;;5.45;;
20880;SDS011;10600;53.096;8.802;2022-11-23T04:53:16;9.40;;;4.90;;
20880;SDS011;10600;53.096;8.802;2022-11-23T04:54:17;10.38;;;4.95;;
20880;SDS011;10600;53.096;8.802;2022-11-23T04:55:18;8.93;;;4.57;;
20880;SDS011;10600;53.096;8.802;2022-11-23T04:56:18;9.52;;;4.60;;
20880;SDS011;10600;53.096;8.802;2022-11-23T04:57:19;7.65;;;4.45;;
20880;SDS011;10600;53.096;8.802;2022-11-23T04:58:19;6.75;;;4.95;;
20880;SDS011;10600;53.096;8.802;2022-11-23T04:59:20;12.32;;;5.10;;
20880;SDS011;10600;53.096;8.802;2022-11-23T05:00:22;9.65;;;4.93;;
20880;SDS011;10600;53.096;8.802;2022-11-23T05:01:22;11.50;;;5.25;;
20880;SDS011;10600;53.096;8.802;2022-11-23T05:02:23;10.07;;;5.18;;
20880;SDS011;10600;53.096;8.802;2022-11-23T05:03:24;11.13;;;4.80;;
20880;SDS011;10600;53.096;8.802;2022-11-23T05:04:24;7.20;;;5.10;;
20880;SDS011;10600;53.096;8.802;2022-11-23T05:05:25;9.30;;;4.97;;
20880;SDS011;10600;53.096;8.802;2022-11-23T05:06:26;8.70;;;5.10;;
20880;SDS011;10600;53.096;8.802;2022-11-23T05:07:26;10.15;;;5.07;;
20880;SDS011;10600;53.096;8.802;2022-11-23T05:08:28;7.10;;;4.90;;
20880;SDS011;10600;53.096;8.802;2022-11-23T05:09:29;12.60;;;5.20;;
20880;SDS011;10600;53.096;8.802;2022-11-23T05:10:31;9.40;;;4.80;;
20880;SDS011;10600;53.096;8.802;2022-11-23T05:11:32;9.63;;;5.05;;
20880;SDS011;10600;53.096;8.802;2022-11-23T05:12:32;11.00;;;4.75;;
20880;SDS011;10600;53.096;8.802;2022-11-23T05:13:33;10.23;;;4.53;;
20880;SDS011;10600;53.096;8.802;2022-11-23T05:14:34;11.80;;;5.28;;
20880;SDS011;10600;53.096;8.802;2022-11-23T05:15:34;9.23;;;4.78;;
20880;SDS011;10600;53.096;8.802;2022-11-23T05:16:35;8.95;;;4.63;;
20880;SDS011;10600;53.096;8.802;2022-11-23T05:17:35;8.10;;;4.20;;
20880;SDS011;10600;53.096;8.802;2022-11-23T05:18:36;11.90;;;4.43;;
20880;SDS011;10600;53.096;8.802;2022-11-23T05:19:37;10.80;;;4.63;;
20880;SDS011;10600;53.096;8.802;2022-11-23T05:20:38;8.02;;;4.90;;
20880;SDS011;10600;53.096;8.802;2022-11-23T05:21:39;8.35;;;4.35;;
20880;SDS011;10600;53.096;8.802;2022-11-23T05:22:39;9.85;;;4.68;;
20880;SDS011;10600;53.096;8.802;2022-11-23T05:23:40;6.57;;;4.30;;
20880;SDS011;10600;53.096;8.802;2022-11-23T05:24:41;9.65;;;4.70;;
20880;SDS011;10600;53.096;8.802;2022-11-23T05:25:41;14.40;;;4.55;;
20880;SDS011;10600;53.096;8.802;2022-11-23T05:26:42;8.95;;;4.45;;
20880;SDS011;10600;53.096;8.802;2022-11-23T05:27:43;13.30;;;4.88;;
20880;SDS011;10600;53.096;8.802;2022-11-23T05:28:44;10.98;;;4.47;;
20880;SDS011;10600;53.096;8.802;2022-11-23T05:29:44;9.68;;;5.03;;
20880;SDS011;10600;53.096;8.802;2022-11-23T05:30:45;10.35;;;5.40;;
20880;SDS011;10600;53.096;8.802;2022-11-23T05:31:46;8.00;;;4.28;;
20880;SDS011;10600;53.096;8.802;2022-11-23T05:32:47;12.07;;;5.07;;
20880;SDS011;10600;53.096;8.802;2022-11-23T05:33:47;7.82;;;4.28;;
20880;SDS011;10600;53.096;8.802;2022-11-23T05:34:48;8.57;;;4.45;;
20880;SDS011;10600;53.096;8.802;2022-11-23T05:35:49;8.80;;;4.50;;
20880;SDS011;10600;53.096;8.802;2022-11-23T05:36:50;10.60;;;4.50;;
20880;SDS011;10600;53.096;8.802;2022-11-23T05:37:51;8.18;;;4.20;;
20880;SDS011;10600;53.096;8.802;2022-11-23T05:38:51;9.52;;;5.15;;
20880;SDS011;10600;53.096;8.802;2022-11-23T05:39:52;10.43;;;5.43;;
20880;SDS011;10600;53.096;8.802;2022-11-23T05:40:53;13.27;;;4.93;;
20880;SDS011;10600;53.096;8.802;2022-11-23T05:41:53;12.25;;;5.38;;
20880;SDS011;10600;53.096;8.802;2022-11-23T05:42:54;12.57;;;5.00;;
20880;SDS011;10600;53.096;8.802;2022-11-23T05:43:56;11.00;;;5.43;;
20880;SDS011;10600;53.096;8.802;2022-11-23T05:44:57;12.88;;;5.88;;
20880;SDS011;10600;53.096;8.802;2022-11-23T05:45:58;10.00;;;5.43;;
20880;SDS011;10600;53.096;8.802;2022-11-23T05:46:59;12.18;;;4.90;;
20880;SDS011;10600;53.096;8.802;2022-11-23T05:48:00;13.82;;;6.00;;
20880;SDS011;10600;53.096;8.802;2022-11-23T05:49:00;7.00;;;5.22;;
20880;SDS011;10600;53.096;8.802;2022-11-23T05:50:01;10.95;;;5.35;;
20880;SDS011;10600;53.096;8.802;2022-11-23T05:51:02;10.63;;;5.97;;
20880;SDS011;10600;53.096;8.802;2022-11-23T05:52:03;15.13;;;6.97;;
20880;SDS011;10600;53.096;8.802;2022-11-23T05:53:05;12.48;;;5.70;;
20880;SDS011;10600;53.096;8.802;2022-11-23T05:54:05;13.85;;;5.03;;
20880;SDS011;10600;53.096;8.802;2022-11-23T05:55:06;10.23;;;5.35;;
20880;SDS011;10600;53.096;8.802;2022-11-23T05:56:07;9.95;;;5.10;;
20880;SDS011;10600;53.096;8.802;2022-11-23T05:57:08;14.48;;;5.50;;
20880;SDS011;10600;53.096;8.802;2022-11-23T05:58:09;12.40;;;5.55;;
20880;SDS011;10600;53.096;8.802;2022-11-23T05:59:10;12.82;;;5.03;;
20880;SDS011;10600;53.096;8.802;2022-11-23T06:00:11;13.93;;;4.97;;
20880;SDS011;10600;53.096;8.802;2022-11-23T06:01:12;9.68;;;5.50;;
20880;SDS011;10600;53.096;8.802;2022-11-23T06:02:12;11.32;;;4.90;;
20880;SDS011;10600;53.096;8.802;2022-11-23T06:03:13;11.27;;;4.95;;
20880;SDS011;10600;53.096;8.802;2022-11-23T06:04:14;11.07;;;5.22;;
20880;SDS011;10600;53.096;8.802;2022-11-23T06:05:14;10.77;;;4.68;;
20880;SDS011;10600;53.096;8.802;2022-11-23T06:06:15;9.13;;;5.15;;
20880;SDS011;10600;53.096;8.802;2022-11-23T06:07:16;7.53;;;4.60;;
20880;SDS011;10600;53.096;8.802;2022-11-23T06:08:16;11.75;;;5.53;;
20880;SDS011;10600;53.096;8.802;2022-11-23T06:09:17;9.70;;;4.68;;
20880;SDS011;10600;53.096;8.802;2022-11-23T06:10:18;8.57;;;4.10;;
20880;SDS011;10600;53.096;8.802;2022-11-23T06:11:19;8.90;;;4.43;;
20880;SDS011;10600;53.096;8.802;2022-11-23T06:12:19;9.07;;;4.85;;
20880;SDS011;10600;53.096;8.802;2022-11-23T06:13:20;9.95;;;4.70;;
20880;SDS011;10600;53.096;8.802;2022-11-23T06:14:20;7.70;;;3.90;;